sensor_id;sensor_type;location;lat;lon;timestamp;P1;durP1;ratioP1;P2;durP2;ratioP2
35847;SDS011;22332;51.954;20.118;2023-04-25T00:00:25;7.30;;;5.30;;
35847;SDS011;22332;51.954;20.118;2023-04-25T00:03:51;6.00;;;5.40;;
35847;SDS011;22332;51.954;20.118;2023-04-25T00:06:57;6.60;;;5.60;;
35847;SDS011;22332;51.954;20.118;2023-04-25T00:10:05;7.40;;;5.80;;
35847;SDS011;22332;51.954;20.118;2023-04-25T00:13:13;6.70;;;5.30;;
35847;SDS011;22332;51.954;20.118;2023-04-25T00:16:20;7.40;;;5.40;;
35847;SDS011;22332;51.954;20.118;2023-04-25T00:19:26;5.60;;;4.60;;
35847;SDS011;22332;51.954;20.118;2023-04-25T00:22:32;6.60;;;4.80;;
35847;SDS011;22332;51.954;20.118;2023-04-25T00:25:39;6.90;;;5.40;;
35847;SDS011;22332;51.954;20.118;2023-04-25T00:28:45;10.70;;;6.50;;
35847;SDS011;22332;51.954;20.118;2023-04-25T00:31:50;8.50;;;6.30;;
35847;SDS011;22332;51.954;20.118;2023-04-25T00:34:56;7.50;;;5.20;;
35847;SDS011;22332;51.954;20.118;2023-04-25T00:38:02;6.80;;;5.70;;
35847;SDS011;22332;51.954;20.118;2023-04-25T00:41:08;6.30;;;4.90;;
35847;SDS011;22332;51.954;20.118;2023-04-25T00:44:13;5.70;;;4.60;;
35847;SDS011;22332;51.954;20.118;2023-04-25T00:47:21;6.00;;;4.90;;
35847;SDS011;22332;51.954;20.118;2023-04-25T00:50:27;6.60;;;4.60;;
35847;SDS011;22332;51.954;20.118;2023-04-25T00:53:33;7.50;;;4.70;;
35847;SDS011;22332;51.954;20.118;2023-04-25T00:56:39;5.70;;;4.40;;
35847;SDS011;22332;51.954;20.118;2023-04-25T00:59:45;8.10;;;5.70;;
35847;SDS011;22332;51.954;20.118;2023-04-25T01:02:51;7.80;;;5.20;;
35847;SDS011;22332;51.954;20.118;2023-04-25T01:05:57;8.40;;;4.90;;
35847;SDS011;22332;51.954;20.118;2023-04-25T01:09:03;8.50;;;5.20;;
35847;SDS011;22332;51.954;20.118;2023-04-25T01:12:09;7.60;;;4.80;;
35847;SDS011;22332;51.954;20.118;2023-04-25T01:15:15;6.30;;;4.40;;
35847;SDS011;22332;51.954;20.118;2023-04-25T01:18:20;6.00;;;4.60;;
35847;SDS011;22332;51.954;20.118;2023-04-25T01:21:27;6.00;;;4.30;;
35847;SDS011;22332;51.954;20.118;2023-04-25T01:24:33;5.90;;;3.90;;
35847;SDS011;22332;51.954;20.118;2023-04-25T01:27:39;7.20;;;3.80;;
35847;SDS011;22332;51.954;20.118;2023-04-25T01:30:45;6.40;;;3.90;;
35847;SDS011;22332;51.954;20.118;2023-04-25T01:33:52;3.70;;;3.00;;
35847;SDS011;22332;51.954;20.118;2023-04-25T01:36:58;4.00;;;3.10;;
35847;SDS011;22332;51.954;20.118;2023-04-25T01:40:06;5.60;;;3.70;;
35847;SDS011;22332;51.954;20.118;2023-04-25T01:43:13;4.20;;;3.30;;
35847;SDS011;22332;51.954;20.118;2023-04-25T01:46:18;4.30;;;3.30;;
35847;SDS011;22332;51.954;20.118;2023-04-25T01:49:25;4.00;;;3.20;;
35847;SDS011;22332;51.954;20.118;2023-04-25T01:52:31;5.90;;;4.00;;
35847;SDS011;22332;51.954;20.118;2023-04-25T01:55:36;4.80;;;3.90;;
35847;SDS011;22332;51.954;20.118;2023-04-25T01:58:46;4.90;;;4.10;;
35847;SDS011;22332;51.954;20.118;2023-04-25T02:01:55;4.20;;;3.30;;
35847;SDS011;22332;51.954;20.118;2023-04-25T02:05:03;3.80;;;3.00;;
35847;SDS011;22332;51.954;20.118;2023-04-25T02:08:13;8.00;;;5.20;;
35847;SDS011;22332;51.954;20.118;2023-04-25T02:11:20;4.40;;;3.10;;
35847;SDS011;22332;51.954;20.118;2023-04-25T02:14:57;7.30;;;4.90;;
35847;SDS011;22332;51.954;20.118;2023-04-25T02:18:12;6.20;;;4.40;;
35847;SDS011;22332;51.954;20.118;2023-04-25T02:21:19;4.80;;;4.00;;
35847;SDS011;22332;51.954;20.118;2023-04-25T02:24:25;5.20;;;3.80;;
35847;SDS011;22332;51.954;20.118;2023-04-25T02:27:32;4.70;;;3.50;;
35847;SDS011;22332;51.954;20.118;2023-04-25T02:30:37;4.50;;;3.60;;
35847;SDS011;22332;51.954;20.118;2023-04-25T02:33:43;4.60;;;3.50;;
35847;SDS011;22332;51.954;20.118;2023-04-25T02:36:49;4.90;;;3.80;;
35847;SDS011;22332;51.954;20.118;2023-04-25T02:39:55;5.60;;;3.80;;
35847;SDS011;22332;51.954;20.118;2023-04-25T02:43:00;6.10;;;4.30;;
35847;SDS011;22332;51.954;20.118;2023-04-25T02:46:06;10.60;;;6.30;;
35847;SDS011;22332;51.954;20.118;2023-04-25T02:49:11;6.20;;;4.40;;
35847;SDS011;22332;51.954;20.118;2023-04-25T02:52:17;7.50;;;4.90;;
35847;SDS011;22332;51.954;20.118;2023-04-25T02:55:29;5.90;;;4.60;;
35847;SDS011;22332;51.954;20.118;2023-04-25T02:58:36;5.90;;;4.40;;
35847;SDS011;22332;51.954;20.118;2023-04-25T03:01:42;6.40;;;5.20;;
35847;SDS011;22332;51.954;20.118;2023-04-25T03:04:48;5.90;;;5.00;;
35847;SDS011;22332;51.954;20.118;2023-04-25T03:07:54;8.60;;;6.50;;
35847;SDS011;22332;51.954;20.118;2023-04-25T03:11:00;9.00;;;6.90;;
35847;SDS011;22332;51.954;20.118;2023-04-25T03:14:06;5.60;;;4.50;;
35847;SDS011;22332;51.954;20.118;2023-04-25T03:17:11;10.50;;;7.60;;
35847;SDS011;22332;51.954;20.118;2023-04-25T03:20:16;6.90;;;5.10;;
35847;SDS011;22332;51.954;20.118;2023-04-25T03:23:23;6.90;;;5.50;;
35847;SDS011;22332;51.954;20.118;2023-04-25T03:26:29;7.10;;;5.00;;
35847;SDS011;22332;51.954;20.118;2023-04-25T03:29:36;7.40;;;5.00;;
35847;SDS011;22332;51.954;20.118;2023-04-25T03:32:43;11.20;;;6.70;;
35847;SDS011;22332;51.954;20.118;2023-04-25T03:35:52;6.30;;;5.40;;
35847;SDS011;22332;51.954;20.118;2023-04-25T03:38:58;7.80;;;5.20;;
35847;SDS011;22332;51.954;20.118;2023-04-25T03:42:04;8.50;;;6.60;;
35847;SDS011;22332;51.954;20.118;2023-04-25T03:45:10;7.20;;;6.10;;
35847;SDS011;22332;51.954;20.118;2023-04-25T03:48:17;7.20;;;5.50;;
35847;SDS011;22332;51.954;20.118;2023-04-25T03:51:24;7.40;;;5.60;;
35847;SDS011;22332;51.954;20.118;2023-04-25T03:54:30;6.30;;;5.70;;
35847;SDS011;22332;51.954;20.118;2023-04-25T03:57:42;9.10;;;6.70;;
35847;SDS011;22332;51.954;20.118;2023-04-25T04:00:47;7.90;;;6.00;;
35847;SDS011;22332;51.954;20.118;2023-04-25T04:03:54;8.00;;;5.60;;
35847;SDS011;22332;51.954;20.118;2023-04-25T04:07:00;9.20;;;6.20;;
35847;SDS011;22332;51.954;20.118;2023-04-25T04:10:11;7.10;;;5.50;;
35847;SDS011;22332;51.954;20.118;2023-04-25T04:13:17;6.20;;;5.40;;
35847;SDS011;22332;51.954;20.118;2023-04-25T04:16:23;7.40;;;5.80;;
35847;SDS011;22332;51.954;20.118;2023-04-25T04:19:29;7.70;;;5.80;;
35847;SDS011;22332;51.954;20.118;2023-04-25T04:23:00;7.90;;;5.00;;
35847;SDS011;22332;51.954;20.118;2023-04-25T04:26:06;7.70;;;6.30;;
35847;SDS011;22332;51.954;20.118;2023-04-25T04:29:21;7.10;;;5.50;;
35847;SDS011;22332;51.954;20.118;2023-04-25T04:32:37;9.20;;;7.00;;
35847;SDS011;22332;51.954;20.118;2023-04-25T04:35:42;5.40;;;4.60;;
35847;SDS011;22332;51.954;20.118;2023-04-25T04:38:49;6.80;;;5.10;;
35847;SDS011;22332;51.954;20.118;2023-04-25T04:42:06;6.20;;;5.00;;
35847;SDS011;22332;51.954;20.118;2023-04-25T04:45:29;10.70;;;4.20;;
35847;SDS011;22332;51.954;20.118;2023-04-25T04:48:56;8.10;;;4.30;;
35847;SDS011;22332;51.954;20.118;2023-04-25T04:52:19;5.60;;;4.40;;
35847;SDS011;22332;51.954;20.118;2023-04-25T04:55:32;7.50;;;4.50;;
35847;SDS011;22332;51.954;20.118;2023-04-25T04:58:46;4.80;;;4.10;;
35847;SDS011;22332;51.954;20.118;2023-04-25T05:02:19;4.90;;;3.90;;
35847;SDS011;22332;51.954;20.118;2023-04-25T05:05:47;5.80;;;4.30;;
35847;SDS011;22332;51.954;20.118;2023-04-25T05:09:26;4.40;;;3.70;;
35847;SDS011;22332;51.954;20.118;2023-04-25T05:12:46;4.40;;;3.40;;
35847;SDS011;22332;51.954;20.118;2023-04-25T05:16:11;5.60;;;3.70;;
35847;SDS011;22332;51.954;20.118;2023-04-25T05:19:28;4.40;;;3.60;;
35847;SDS011;22332;51.954;20.118;2023-04-25T05:23:00;5.10;;;4.10;;
35847;SDS011;22332;51.954;20.118;2023-04-25T05:26:32;5.40;;;4.00;;
35847;SDS011;22332;51.954;20.118;2023-04-25T05:29:57;6.00;;;3.90;;
35847;SDS011;22332;51.954;20.118;2023-04-25T05:33:12;5.00;;;3.80;;
35847;SDS011;22332;51.954;20.118;2023-04-25T05:36:19;4.00;;;3.10;;
35847;SDS011;22332;51.954;20.118;2023-04-25T05:39:26;4.40;;;3.50;;
35847;SDS011;22332;51.954;20.118;2023-04-25T05:42:51;6.50;;;3.60;;
35847;SDS011;22332;51.954;20.118;2023-04-25T05:45:57;4.60;;;3.50;;
35847;SDS011;22332;51.954;20.118;2023-04-25T05:49:23;5.40;;;3.50;;
35847;SDS011;22332;51.954;20.118;2023-04-25T05:52:34;4.40;;;3.90;;
35847;SDS011;22332;51.954;20.118;2023-04-25T05:56:03;4.30;;;3.20;;
35847;SDS011;22332;51.954;20.118;2023-04-25T05:59:09;3.90;;;3.30;;
35847;SDS011;22332;51.954;20.118;2023-04-25T06:02:15;3.80;;;3.40;;
35847;SDS011;22332;51.954;20.118;2023-04-25T06:05:21;5.00;;;3.90;;
35847;SDS011;22332;51.954;20.118;2023-04-25T06:08:27;5.00;;;3.40;;
35847;SDS011;22332;51.954;20.118;2023-04-25T06:11:33;4.00;;;3.50;;
35847;SDS011;22332;51.954;20.118;2023-04-25T06:14:40;4.70;;;3.40;;
35847;SDS011;22332;51.954;20.118;2023-04-25T06:17:46;34.80;;;19.50;;
35847;SDS011;22332;51.954;20.118;2023-04-25T06:20:52;5.00;;;3.90;;
35847;SDS011;22332;51.954;20.118;2023-04-25T06:23:59;3.50;;;2.90;;
35847;SDS011;22332;51.954;20.118;2023-04-25T06:27:04;4.30;;;3.30;;
35847;SDS011;22332;51.954;20.118;2023-04-25T06:30:11;5.20;;;3.20;;
35847;SDS011;22332;51.954;20.118;2023-04-25T06:33:18;5.20;;;4.20;;
35847;SDS011;22332;51.954;20.118;2023-04-25T06:36:25;6.00;;;4.20;;
35847;SDS011;22332;51.954;20.118;2023-04-25T06:39:35;7.40;;;6.50;;
35847;SDS011;22332;51.954;20.118;2023-04-25T06:42:41;4.30;;;3.50;;
35847;SDS011;22332;51.954;20.118;2023-04-25T06:46:07;12.60;;;7.20;;
35847;SDS011;22332;51.954;20.118;2023-04-25T06:49:18;4.70;;;3.20;;
35847;SDS011;22332;51.954;20.118;2023-04-25T06:52:24;12.70;;;8.90;;
35847;SDS011;22332;51.954;20.118;2023-04-25T06:55:30;5.90;;;4.50;;
35847;SDS011;22332;51.954;20.118;2023-04-25T06:58:57;10.40;;;7.00;;
35847;SDS011;22332;51.954;20.118;2023-04-25T07:05:13;8.20;;;5.60;;
35847;SDS011;22332;51.954;20.118;2023-04-25T07:08:19;22.10;;;14.80;;
35847;SDS011;22332;51.954;20.118;2023-04-25T07:11:24;10.10;;;7.80;;
35847;SDS011;22332;51.954;20.118;2023-04-25T07:14:30;9.70;;;8.00;;
35847;SDS011;22332;51.954;20.118;2023-04-25T07:17:36;8.50;;;7.60;;
35847;SDS011;22332;51.954;20.118;2023-04-25T07:20:41;6.30;;;4.80;;
35847;SDS011;22332;51.954;20.118;2023-04-25T07:23:47;6.20;;;4.90;;
35847;SDS011;22332;51.954;20.118;2023-04-25T07:26:56;12.60;;;11.40;;
35847;SDS011;22332;51.954;20.118;2023-04-25T07:30:08;5.20;;;4.70;;
35847;SDS011;22332;51.954;20.118;2023-04-25T07:33:15;5.10;;;4.60;;
35847;SDS011;22332;51.954;20.118;2023-04-25T07:36:23;5.10;;;4.60;;
35847;SDS011;22332;51.954;20.118;2023-04-25T07:39:29;8.30;;;5.10;;
35847;SDS011;22332;51.954;20.118;2023-04-25T07:42:36;5.80;;;5.00;;
35847;SDS011;22332;51.954;20.118;2023-04-25T07:45:42;5.70;;;4.90;;
35847;SDS011;22332;51.954;20.118;2023-04-25T07:48:48;8.10;;;7.20;;
35847;SDS011;22332;51.954;20.118;2023-04-25T07:51:55;4.70;;;4.20;;
35847;SDS011;22332;51.954;20.118;2023-04-25T07:55:00;8.50;;;6.50;;
35847;SDS011;22332;51.954;20.118;2023-04-25T07:58:15;12.30;;;7.70;;
35847;SDS011;22332;51.954;20.118;2023-04-25T08:01:24;14.40;;;8.90;;
35847;SDS011;22332;51.954;20.118;2023-04-25T08:04:34;14.40;;;8.90;;
35847;SDS011;22332;51.954;20.118;2023-04-25T08:07:42;9.90;;;7.00;;
35847;SDS011;22332;51.954;20.118;2023-04-25T08:10:48;5.60;;;4.40;;
35847;SDS011;22332;51.954;20.118;2023-04-25T08:13:54;4.90;;;4.00;;
35847;SDS011;22332;51.954;20.118;2023-04-25T08:17:00;3.90;;;3.50;;
35847;SDS011;22332;51.954;20.118;2023-04-25T08:20:07;5.90;;;4.00;;
35847;SDS011;22332;51.954;20.118;2023-04-25T08:23:14;4.30;;;3.50;;
35847;SDS011;22332;51.954;20.118;2023-04-25T08:26:43;3.70;;;3.30;;
35847;SDS011;22332;51.954;20.118;2023-04-25T08:29:51;4.00;;;3.60;;
35847;SDS011;22332;51.954;20.118;2023-04-25T08:32:57;4.60;;;3.60;;
35847;SDS011;22332;51.954;20.118;2023-04-25T08:36:21;3.50;;;3.20;;
35847;SDS011;22332;51.954;20.118;2023-04-25T08:39:28;4.80;;;3.90;;
35847;SDS011;22332;51.954;20.118;2023-04-25T08:42:50;10.70;;;5.90;;
35847;SDS011;22332;51.954;20.118;2023-04-25T08:45:57;5.90;;;3.60;;
35847;SDS011;22332;51.954;20.118;2023-04-25T08:49:16;5.80;;;3.50;;
35847;SDS011;22332;51.954;20.118;2023-04-25T08:52:22;4.30;;;3.10;;
35847;SDS011;22332;51.954;20.118;2023-04-25T08:55:31;5.00;;;4.10;;
35847;SDS011;22332;51.954;20.118;2023-04-25T08:58:37;8.80;;;6.10;;
35847;SDS011;22332;51.954;20.118;2023-04-25T09:01:43;8.90;;;6.40;;
35847;SDS011;22332;51.954;20.118;2023-04-25T09:04:48;6.70;;;4.00;;
35847;SDS011;22332;51.954;20.118;2023-04-25T09:07:57;4.80;;;4.20;;
35847;SDS011;22332;51.954;20.118;2023-04-25T09:11:04;4.20;;;3.80;;
35847;SDS011;22332;51.954;20.118;2023-04-25T09:14:14;5.40;;;4.50;;
35847;SDS011;22332;51.954;20.118;2023-04-25T09:17:35;6.60;;;3.90;;
35847;SDS011;22332;51.954;20.118;2023-04-25T09:20:43;10.70;;;7.20;;
35847;SDS011;22332;51.954;20.118;2023-04-25T09:23:49;7.60;;;5.40;;
35847;SDS011;22332;51.954;20.118;2023-04-25T09:26:55;16.40;;;9.10;;
35847;SDS011;22332;51.954;20.118;2023-04-25T09:30:01;8.80;;;6.20;;
35847;SDS011;22332;51.954;20.118;2023-04-25T09:33:32;10.60;;;7.10;;
35847;SDS011;22332;51.954;20.118;2023-04-25T09:36:40;6.10;;;4.40;;
35847;SDS011;22332;51.954;20.118;2023-04-25T09:40:06;4.90;;;3.90;;
35847;SDS011;22332;51.954;20.118;2023-04-25T09:43:26;16.30;;;11.20;;
35847;SDS011;22332;51.954;20.118;2023-04-25T09:46:36;6.90;;;4.70;;
35847;SDS011;22332;51.954;20.118;2023-04-25T09:50:01;11.60;;;9.20;;
35847;SDS011;22332;51.954;20.118;2023-04-25T09:53:18;13.60;;;10.20;;
35847;SDS011;22332;51.954;20.118;2023-04-25T09:56:36;13.50;;;9.60;;
35847;SDS011;22332;51.954;20.118;2023-04-25T09:59:44;18.50;;;12.90;;
35847;SDS011;22332;51.954;20.118;2023-04-25T10:02:51;8.60;;;6.30;;
35847;SDS011;22332;51.954;20.118;2023-04-25T10:06:21;7.80;;;5.70;;
35847;SDS011;22332;51.954;20.118;2023-04-25T10:09:29;6.70;;;4.40;;
35847;SDS011;22332;51.954;20.118;2023-04-25T10:12:39;5.40;;;4.10;;
35847;SDS011;22332;51.954;20.118;2023-04-25T10:15:46;10.50;;;8.80;;
35847;SDS011;22332;51.954;20.118;2023-04-25T10:18:53;7.20;;;5.90;;
35847;SDS011;22332;51.954;20.118;2023-04-25T10:22:01;9.60;;;7.60;;
35847;SDS011;22332;51.954;20.118;2023-04-25T10:25:10;9.30;;;6.30;;
35847;SDS011;22332;51.954;20.118;2023-04-25T10:28:17;7.10;;;5.80;;
35847;SDS011;22332;51.954;20.118;2023-04-25T10:31:23;12.30;;;9.20;;
35847;SDS011;22332;51.954;20.118;2023-04-25T10:34:38;11.50;;;7.80;;
35847;SDS011;22332;51.954;20.118;2023-04-25T10:37:58;6.90;;;5.40;;
35847;SDS011;22332;51.954;20.118;2023-04-25T10:41:07;6.90;;;5.20;;
35847;SDS011;22332;51.954;20.118;2023-04-25T10:44:14;6.30;;;5.70;;
35847;SDS011;22332;51.954;20.118;2023-04-25T10:47:19;5.50;;;4.90;;
35847;SDS011;22332;51.954;20.118;2023-04-25T10:50:40;6.30;;;5.30;;
35847;SDS011;22332;51.954;20.118;2023-04-25T10:53:45;8.50;;;5.70;;
35847;SDS011;22332;51.954;20.118;2023-04-25T10:57:00;10.00;;;7.50;;
35847;SDS011;22332;51.954;20.118;2023-04-25T11:00:13;9.00;;;6.60;;
35847;SDS011;22332;51.954;20.118;2023-04-25T11:03:22;6.00;;;5.00;;
35847;SDS011;22332;51.954;20.118;2023-04-25T11:06:31;6.60;;;5.50;;
35847;SDS011;22332;51.954;20.118;2023-04-25T11:09:46;7.50;;;6.30;;
35847;SDS011;22332;51.954;20.118;2023-04-25T11:12:52;9.40;;;7.10;;
35847;SDS011;22332;51.954;20.118;2023-04-25T11:15:58;4.90;;;4.40;;
35847;SDS011;22332;51.954;20.118;2023-04-25T11:19:04;6.50;;;4.90;;
35847;SDS011;22332;51.954;20.118;2023-04-25T11:22:09;5.20;;;4.60;;
35847;SDS011;22332;51.954;20.118;2023-04-25T11:25:15;6.20;;;5.40;;
35847;SDS011;22332;51.954;20.118;2023-04-25T11:28:22;10.50;;;8.70;;
35847;SDS011;22332;51.954;20.118;2023-04-25T11:31:28;6.40;;;5.50;;
35847;SDS011;22332;51.954;20.118;2023-04-25T11:34:34;5.50;;;4.90;;
35847;SDS011;22332;51.954;20.118;2023-04-25T11:37:40;6.00;;;5.40;;
35847;SDS011;22332;51.954;20.118;2023-04-25T11:40:46;5.50;;;4.90;;
35847;SDS011;22332;51.954;20.118;2023-04-25T11:43:55;5.20;;;4.60;;
35847;SDS011;22332;51.954;20.118;2023-04-25T11:47:01;6.70;;;5.50;;
35847;SDS011;22332;51.954;20.118;2023-04-25T11:50:07;5.80;;;5.30;;
35847;SDS011;22332;51.954;20.118;2023-04-25T11:53:13;5.40;;;4.90;;
35847;SDS011;22332;51.954;20.118;2023-04-25T11:56:21;5.60;;;4.90;;
35847;SDS011;22332;51.954;20.118;2023-04-25T11:59:27;6.50;;;5.50;;
35847;SDS011;22332;51.954;20.118;2023-04-25T12:02:33;6.20;;;5.60;;
35847;SDS011;22332;51.954;20.118;2023-04-25T12:05:40;6.80;;;5.50;;
35847;SDS011;22332;51.954;20.118;2023-04-25T12:12:09;7.90;;;5.20;;
35847;SDS011;22332;51.954;20.118;2023-04-25T12:15:15;4.90;;;4.40;;
35847;SDS011;22332;51.954;20.118;2023-04-25T12:18:24;5.20;;;4.60;;
35847;SDS011;22332;51.954;20.118;2023-04-25T12:21:30;4.40;;;3.90;;
35847;SDS011;22332;51.954;20.118;2023-04-25T12:24:37;5.40;;;4.60;;
35847;SDS011;22332;51.954;20.118;2023-04-25T12:27:42;5.80;;;5.10;;
35847;SDS011;22332;51.954;20.118;2023-04-25T12:30:56;5.20;;;4.70;;
35847;SDS011;22332;51.954;20.118;2023-04-25T12:34:04;5.10;;;4.50;;
35847;SDS011;22332;51.954;20.118;2023-04-25T12:37:10;6.10;;;4.60;;
35847;SDS011;22332;51.954;20.118;2023-04-25T12:40:16;6.70;;;5.40;;
35847;SDS011;22332;51.954;20.118;2023-04-25T12:43:22;6.10;;;5.20;;
35847;SDS011;22332;51.954;20.118;2023-04-25T12:46:28;6.70;;;5.80;;
35847;SDS011;22332;51.954;20.118;2023-04-25T12:49:33;5.80;;;5.20;;
35847;SDS011;22332;51.954;20.118;2023-04-25T12:52:39;6.40;;;5.00;;
35847;SDS011;22332;51.954;20.118;2023-04-25T12:55:44;14.00;;;10.40;;
35847;SDS011;22332;51.954;20.118;2023-04-25T12:58:50;24.20;;;16.40;;
35847;SDS011;22332;51.954;20.118;2023-04-25T13:01:56;10.30;;;8.30;;
35847;SDS011;22332;51.954;20.118;2023-04-25T13:05:02;8.90;;;7.30;;
35847;SDS011;22332;51.954;20.118;2023-04-25T13:08:08;8.60;;;7.00;;
35847;SDS011;22332;51.954;20.118;2023-04-25T13:11:14;9.00;;;7.80;;
35847;SDS011;22332;51.954;20.118;2023-04-25T13:14:19;9.00;;;7.20;;
35847;SDS011;22332;51.954;20.118;2023-04-25T13:17:25;8.30;;;6.40;;
35847;SDS011;22332;51.954;20.118;2023-04-25T13:20:30;9.70;;;6.50;;
35847;SDS011;22332;51.954;20.118;2023-04-25T13:23:36;7.70;;;6.20;;
35847;SDS011;22332;51.954;20.118;2023-04-25T13:26:43;6.70;;;6.00;;
35847;SDS011;22332;51.954;20.118;2023-04-25T13:29:48;7.40;;;6.30;;
35847;SDS011;22332;51.954;20.118;2023-04-25T13:32:55;13.70;;;9.90;;
35847;SDS011;22332;51.954;20.118;2023-04-25T13:36:05;18.20;;;13.20;;
35847;SDS011;22332;51.954;20.118;2023-04-25T13:39:11;9.30;;;6.30;;
35847;SDS011;22332;51.954;20.118;2023-04-25T13:42:17;5.70;;;5.00;;
35847;SDS011;22332;51.954;20.118;2023-04-25T13:45:22;6.00;;;4.90;;
35847;SDS011;22332;51.954;20.118;2023-04-25T13:48:28;12.00;;;7.10;;
35847;SDS011;22332;51.954;20.118;2023-04-25T13:51:33;10.00;;;5.80;;
35847;SDS011;22332;51.954;20.118;2023-04-25T13:54:39;12.40;;;8.60;;
35847;SDS011;22332;51.954;20.118;2023-04-25T13:57:44;9.20;;;6.40;;
35847;SDS011;22332;51.954;20.118;2023-04-25T14:00:50;6.60;;;5.20;;
35847;SDS011;22332;51.954;20.118;2023-04-25T14:03:57;33.80;;;21.30;;
35847;SDS011;22332;51.954;20.118;2023-04-25T14:07:03;6.60;;;5.70;;
35847;SDS011;22332;51.954;20.118;2023-04-25T14:10:10;23.50;;;16.00;;
35847;SDS011;22332;51.954;20.118;2023-04-25T14:13:15;39.40;;;26.80;;
35847;SDS011;22332;51.954;20.118;2023-04-25T14:16:21;7.40;;;6.10;;
35847;SDS011;22332;51.954;20.118;2023-04-25T14:19:26;7.50;;;5.70;;
35847;SDS011;22332;51.954;20.118;2023-04-25T14:22:32;6.00;;;4.90;;
35847;SDS011;22332;51.954;20.118;2023-04-25T14:25:37;6.70;;;5.50;;
35847;SDS011;22332;51.954;20.118;2023-04-25T14:28:44;14.60;;;13.10;;
35847;SDS011;22332;51.954;20.118;2023-04-25T14:31:50;9.70;;;7.40;;
35847;SDS011;22332;51.954;20.118;2023-04-25T14:34:56;12.10;;;9.80;;
35847;SDS011;22332;51.954;20.118;2023-04-25T14:38:01;11.50;;;7.60;;
35847;SDS011;22332;51.954;20.118;2023-04-25T14:41:08;9.10;;;6.80;;
35847;SDS011;22332;51.954;20.118;2023-04-25T14:44:13;14.00;;;8.20;;
35847;SDS011;22332;51.954;20.118;2023-04-25T14:47:19;21.20;;;10.70;;
35847;SDS011;22332;51.954;20.118;2023-04-25T14:50:25;20.90;;;12.10;;
35847;SDS011;22332;51.954;20.118;2023-04-25T14:53:30;15.60;;;9.50;;
35847;SDS011;22332;51.954;20.118;2023-04-25T14:56:36;9.70;;;6.90;;
35847;SDS011;22332;51.954;20.118;2023-04-25T14:59:42;20.20;;;14.20;;
35847;SDS011;22332;51.954;20.118;2023-04-25T15:02:47;17.10;;;14.20;;
35847;SDS011;22332;51.954;20.118;2023-04-25T15:05:53;27.40;;;19.60;;
35847;SDS011;22332;51.954;20.118;2023-04-25T15:09:01;34.10;;;26.50;;
35847;SDS011;22332;51.954;20.118;2023-04-25T15:12:07;15.50;;;12.40;;
35847;SDS011;22332;51.954;20.118;2023-04-25T15:15:14;11.80;;;10.50;;
35847;SDS011;22332;51.954;20.118;2023-04-25T15:18:20;29.10;;;26.00;;
35847;SDS011;22332;51.954;20.118;2023-04-25T15:21:26;12.10;;;10.80;;
35847;SDS011;22332;51.954;20.118;2023-04-25T15:24:32;10.70;;;9.10;;
35847;SDS011;22332;51.954;20.118;2023-04-25T15:27:38;13.90;;;10.00;;
35847;SDS011;22332;51.954;20.118;2023-04-25T15:30:46;16.60;;;11.10;;
35847;SDS011;22332;51.954;20.118;2023-04-25T15:33:51;16.40;;;10.70;;
35847;SDS011;22332;51.954;20.118;2023-04-25T15:36:57;12.60;;;9.10;;
35847;SDS011;22332;51.954;20.118;2023-04-25T15:40:03;15.70;;;10.20;;
35847;SDS011;22332;51.954;20.118;2023-04-25T15:43:12;18.80;;;11.70;;
35847;SDS011;22332;51.954;20.118;2023-04-25T15:46:19;23.90;;;13.60;;
35847;SDS011;22332;51.954;20.118;2023-04-25T15:49:25;35.40;;;20.10;;
35847;SDS011;22332;51.954;20.118;2023-04-25T15:52:31;23.30;;;16.90;;
35847;SDS011;22332;51.954;20.118;2023-04-25T15:55:37;12.90;;;10.70;;
35847;SDS011;22332;51.954;20.118;2023-04-25T15:58:42;11.40;;;8.50;;
35847;SDS011;22332;51.954;20.118;2023-04-25T16:01:48;11.10;;;8.60;;
35847;SDS011;22332;51.954;20.118;2023-04-25T16:04:53;10.80;;;9.70;;
35847;SDS011;22332;51.954;20.118;2023-04-25T16:07:59;13.80;;;10.60;;
35847;SDS011;22332;51.954;20.118;2023-04-25T16:11:06;11.90;;;9.90;;
35847;SDS011;22332;51.954;20.118;2023-04-25T16:14:11;14.60;;;11.40;;
35847;SDS011;22332;51.954;20.118;2023-04-25T16:17:17;21.00;;;16.50;;
35847;SDS011;22332;51.954;20.118;2023-04-25T16:20:23;20.20;;;15.60;;
35847;SDS011;22332;51.954;20.118;2023-04-25T16:23:28;16.80;;;11.80;;
35847;SDS011;22332;51.954;20.118;2023-04-25T16:26:34;15.80;;;12.10;;
35847;SDS011;22332;51.954;20.118;2023-04-25T16:29:40;18.80;;;15.20;;
35847;SDS011;22332;51.954;20.118;2023-04-25T16:32:45;17.70;;;15.20;;
35847;SDS011;22332;51.954;20.118;2023-04-25T16:35:51;18.00;;;14.90;;
35847;SDS011;22332;51.954;20.118;2023-04-25T16:38:57;17.60;;;13.70;;
35847;SDS011;22332;51.954;20.118;2023-04-25T16:42:03;19.10;;;14.70;;
35847;SDS011;22332;51.954;20.118;2023-04-25T16:45:09;26.60;;;22.80;;
35847;SDS011;22332;51.954;20.118;2023-04-25T16:48:15;23.20;;;18.20;;
35847;SDS011;22332;51.954;20.118;2023-04-25T16:51:22;18.20;;;14.70;;
35847;SDS011;22332;51.954;20.118;2023-04-25T16:54:28;12.50;;;9.50;;
35847;SDS011;22332;51.954;20.118;2023-04-25T16:57:33;12.90;;;8.90;;
35847;SDS011;22332;51.954;20.118;2023-04-25T17:00:39;13.60;;;11.90;;
35847;SDS011;22332;51.954;20.118;2023-04-25T17:03:45;21.40;;;14.70;;
35847;SDS011;22332;51.954;20.118;2023-04-25T17:06:51;11.10;;;8.10;;
35847;SDS011;22332;51.954;20.118;2023-04-25T17:09:57;9.20;;;6.80;;
35847;SDS011;22332;51.954;20.118;2023-04-25T17:13:03;12.80;;;7.50;;
35847;SDS011;22332;51.954;20.118;2023-04-25T17:16:08;8.60;;;6.10;;
35847;SDS011;22332;51.954;20.118;2023-04-25T17:19:18;13.70;;;12.10;;
35847;SDS011;22332;51.954;20.118;2023-04-25T17:22:24;9.90;;;8.70;;
35847;SDS011;22332;51.954;20.118;2023-04-25T17:25:29;6.90;;;6.10;;
35847;SDS011;22332;51.954;20.118;2023-04-25T17:28:35;5.50;;;4.50;;
35847;SDS011;22332;51.954;20.118;2023-04-25T17:31:40;7.70;;;5.20;;
35847;SDS011;22332;51.954;20.118;2023-04-25T17:34:47;7.40;;;6.60;;
35847;SDS011;22332;51.954;20.118;2023-04-25T17:37:53;10.40;;;8.60;;
35847;SDS011;22332;51.954;20.118;2023-04-25T17:40:59;9.30;;;8.00;;
35847;SDS011;22332;51.954;20.118;2023-04-25T17:44:04;9.10;;;7.90;;
35847;SDS011;22332;51.954;20.118;2023-04-25T17:47:10;8.60;;;6.90;;
35847;SDS011;22332;51.954;20.118;2023-04-25T17:50:15;8.30;;;6.00;;
35847;SDS011;22332;51.954;20.118;2023-04-25T17:53:22;10.00;;;7.20;;
35847;SDS011;22332;51.954;20.118;2023-04-25T17:56:28;6.80;;;5.70;;
35847;SDS011;22332;51.954;20.118;2023-04-25T17:59:33;6.70;;;5.20;;
35847;SDS011;22332;51.954;20.118;2023-04-25T18:02:39;7.70;;;6.50;;
35847;SDS011;22332;51.954;20.118;2023-04-25T18:05:44;7.70;;;6.50;;
35847;SDS011;22332;51.954;20.118;2023-04-25T18:08:50;8.00;;;6.50;;
35847;SDS011;22332;51.954;20.118;2023-04-25T18:11:56;7.60;;;6.60;;
35847;SDS011;22332;51.954;20.118;2023-04-25T18:15:01;7.10;;;6.10;;
35847;SDS011;22332;51.954;20.118;2023-04-25T18:18:08;9.50;;;6.40;;
35847;SDS011;22332;51.954;20.118;2023-04-25T18:21:21;8.90;;;6.80;;
35847;SDS011;22332;51.954;20.118;2023-04-25T18:24:27;8.60;;;6.50;;
35847;SDS011;22332;51.954;20.118;2023-04-25T18:27:33;8.00;;;6.50;;
35847;SDS011;22332;51.954;20.118;2023-04-25T18:30:39;7.60;;;6.20;;
35847;SDS011;22332;51.954;20.118;2023-04-25T18:33:46;7.80;;;6.10;;
35847;SDS011;22332;51.954;20.118;2023-04-25T18:36:52;8.50;;;6.90;;